Time;durP1;ratioP1;P1;durP2;ratioP2;P2;SDS_P1;SDS_P2;PMS_P1;PMS_P2;Temp;Humidity;BMP_temperature;BMP_pressure;BME280_temperature;BME280_humidity;BME280_pressure;Samples;Min_cycle;Max_cycle;Signal;HPM_P1;HPM_P2
2023/05/30 00:01:51;;;;;;;14.70;4.00;;;12.20;99.90;;;;;;4941698;29;20281;-80
2023/05/30 00:04:17;;;;;;;13.23;3.95;;;12.20;99.90;;;;;;4941994;29;20197;-80
2023/05/30 00:06:43;;;;;;;12.13;4.05;;;12.20;99.90;;;;;;4957525;28;20193;-79
2023/05/30 00:09:10;;;;;;;16.52;4.10;;;12.20;99.90;;;;;;4959012;29;20696;-80
2023/05/30 00:11:36;;;;;;;10.90;4.00;;;12.20;99.90;;;;;;4937266;29;20247;-79
2023/05/30 00:14:02;;;;;;;16.42;4.18;;;12.20;99.90;;;;;;4942136;29;20218;-79
2023/05/30 00:16:28;;;;;;;16.08;3.97;;;12.20;99.90;;;;;;4942059;29;20305;-80
2023/05/30 00:18:56;;;;;;;13.30;3.92;;;12.20;99.90;;;;;;4930901;29;20197;-79
2023/05/30 00:21:22;;;;;;;16.17;4.03;;;12.10;99.90;;;;;;4941905;29;20198;-80
2023/05/30 00:23:49;;;;;;;19.98;4.35;;;12.10;99.90;;;;;;4959191;29;20191;-80
2023/05/30 00:26:15;;;;;;;13.68;3.88;;;12.10;99.90;;;;;;4959295;28;20183;-79
2023/05/30 00:28:48;;;;;;;15.05;3.90;;;12.10;99.90;;;;;;4959589;28;20273;-79
2023/05/30 00:31:13;;;;;;;15.25;3.85;;;12.10;99.90;;;;;;4959397;29;20663;-80
2023/05/30 00:33:39;;;;;;;14.85;4.07;;;12.10;99.90;;;;;;4932637;29;20270;-79
2023/05/30 00:36:05;;;;;;;10.98;3.97;;;12.10;99.90;;;;;;4959515;28;20198;-80
2023/05/30 00:38:31;;;;;;;14.88;3.85;;;12.10;99.90;;;;;;4923130;29;20210;-79
2023/05/30 00:40:57;;;;;;;15.05;4.13;;;12.10;99.90;;;;;;4932486;29;20199;-79
2023/05/30 00:43:23;;;;;;;10.93;3.72;;;12.10;99.90;;;;;;4939197;29;20575;-80
2023/05/30 00:45:52;;;;;;;22.60;4.95;;;12.10;99.90;;;;;;4971052;28;20179;-79
2023/05/30 00:48:19;;;;;;;17.27;4.20;;;12.10;99.90;;;;;;4953971;28;20182;-79
2023/05/30 00:50:46;;;;;;;18.30;4.25;;;12.10;99.90;;;;;;4903088;29;20752;-79
2023/05/30 00:53:14;;;;;;;13.35;3.83;;;12.10;99.90;;;;;;4941002;29;20195;-80
2023/05/30 00:55:40;;;;;;;18.17;4.07;;;12.10;99.90;;;;;;4955311;29;20336;-79
2023/05/30 00:58:07;;;;;;;12.63;3.65;;;12.10;99.90;;;;;;4942226;29;20278;-81
2023/05/30 01:00:38;;;;;;;14.20;3.97;;;12.10;99.90;;;;;;4939217;28;20218;-80
2023/05/30 01:03:05;;;;;;;12.05;3.90;;;12.00;99.90;;;;;;4938703;29;20188;-80
2023/05/30 01:05:31;;;;;;;17.52;3.67;;;12.10;99.90;;;;;;4951808;29;20179;-80
2023/05/30 01:07:57;;;;;;;15.65;3.97;;;12.10;99.90;;;;;;4934446;29;20273;-80
2023/05/30 01:10:23;;;;;;;13.27;3.90;;;12.10;99.90;;;;;;4954863;29;20230;-80
2023/05/30 01:13:17;;;;;;;14.95;4.20;;;12.10;99.90;;;;;;4934935;29;20183;-80
2023/05/30 01:15:52;;;;;;;20.50;4.07;;;12.10;99.90;;;;;;4929179;29;20195;-80
2023/05/30 01:18:50;;;;;;;15.77;4.10;;;12.10;99.90;;;;;;4952620;29;20598;-80
2023/05/30 01:21:19;;;;;;;14.48;4.22;;;12.10;99.90;;;;;;4936755;29;20201;-80
2023/05/30 01:24:07;;;;;;;17.42;3.95;;;12.10;99.90;;;;;;4948249;29;20196;-80
2023/05/30 01:27:03;;;;;;;13.27;3.70;;;12.10;99.90;;;;;;4946573;29;20368;-80
2023/05/30 01:29:31;;;;;;;11.10;3.80;;;12.10;99.90;;;;;;4937538;29;20222;-80
2023/05/30 01:31:58;;;;;;;11.20;3.83;;;12.10;99.90;;;;;;4953930;29;20633;-80
2023/05/30 01:34:24;;;;;;;19.27;4.20;;;12.00;99.90;;;;;;4954232;29;20662;-81
2023/05/30 01:36:50;;;;;;;14.20;4.00;;;12.00;99.90;;;;;;4936422;29;20613;-80
2023/05/30 01:39:16;;;;;;;11.93;4.13;;;12.00;99.90;;;;;;4952441;29;20206;-80
2023/05/30 01:42:11;;;;;;;21.10;4.35;;;12.00;99.90;;;;;;4953251;29;20278;-80
2023/05/30 01:44:49;;;;;;;15.23;4.03;;;12.00;99.90;;;;;;4954010;28;20274;-80
2023/05/30 01:47:33;;;;;;;15.90;4.78;;;12.00;99.90;;;;;;4951135;29;20195;-80
2023/05/30 01:50:04;;;;;;;14.18;3.88;;;12.00;99.90;;;;;;4947447;29;20206;-79
2023/05/30 01:52:36;;;;;;;13.15;4.22;;;12.00;99.90;;;;;;4937066;29;20182;-81
2023/05/30 01:55:05;;;;;;;13.50;4.03;;;12.00;99.90;;;;;;4933723;29;20194;-82
2023/05/30 01:57:32;;;;;;;19.77;4.15;;;12.00;99.90;;;;;;4950159;29;20277;-80
2023/05/30 01:59:59;;;;;;;13.95;4.45;;;12.00;99.90;;;;;;4950552;28;20194;-80
2023/05/30 02:02:25;;;;;;;17.30;4.40;;;12.10;99.90;;;;;;4934643;29;20242;-80
2023/05/30 02:04:51;;;;;;;17.70;4.18;;;12.00;99.90;;;;;;4935714;29;20210;-80
2023/05/30 02:07:17;;;;;;;14.43;4.07;;;12.10;99.90;;;;;;4938431;29;20199;-80
2023/05/30 02:09:44;;;;;;;14.63;4.53;;;12.10;99.90;;;;;;4936900;29;20556;-80
2023/05/30 02:12:11;;;;;;;15.38;5.00;;;12.00;99.90;;;;;;4938999;29;20338;-81
2023/05/30 02:14:37;;;;;;;13.93;4.55;;;12.00;99.90;;;;;;4936194;29;20269;-80
2023/05/30 02:17:03;;;;;;;15.02;4.55;;;12.00;99.90;;;;;;4937195;29;20286;-81
2023/05/30 02:19:29;;;;;;;20.35;4.75;;;12.00;99.90;;;;;;4936980;29;20193;-81
2023/05/30 02:21:55;;;;;;;22.50;6.00;;;12.00;99.90;;;;;;4937161;29;20190;-80
2023/05/30 02:24:23;;;;;;;17.13;5.10;;;12.00;99.90;;;;;;4936639;29;20229;-80
2023/05/30 02:26:49;;;;;;;17.83;4.35;;;12.00;99.90;;;;;;4921569;29;20288;-80
2023/05/30 02:29:15;;;;;;;18.38;4.80;;;12.00;99.90;;;;;;4936706;29;20222;-80
2023/05/30 02:31:41;;;;;;;16.77;4.90;;;12.00;99.90;;;;;;4920857;29;20221;-80
2023/05/30 02:34:07;;;;;;;19.08;4.85;;;12.00;99.90;;;;;;4953349;29;20194;-80
2023/05/30 02:36:32;;;;;;;18.55;4.70;;;12.00;99.90;;;;;;4922539;29;20195;-80
2023/05/30 02:39:06;;;;;;;20.33;4.85;;;12.00;99.90;;;;;;4936793;29;20206;-80
2023/05/30 02:41:33;;;;;;;24.02;5.18;;;12.00;99.90;;;;;;4953182;29;20273;-80
2023/05/30 02:43:59;;;;;;;14.52;4.65;;;12.10;99.90;;;;;;4922212;29;20568;-80
2023/05/30 02:46:25;;;;;;;21.38;4.85;;;12.00;99.90;;;;;;4951492;29;20285;-81
2023/05/30 02:48:52;;;;;;;19.30;4.63;;;12.00;99.90;;;;;;4938357;29;20206;-80
2023/05/30 02:51:18;;;;;;;23.75;5.00;;;12.00;99.90;;;;;;4924677;29;20222;-80
2023/05/30 02:53:43;;;;;;;17.33;4.53;;;12.00;99.90;;;;;;4953554;29;20515;-80
2023/05/30 02:56:10;;;;;;;13.80;4.40;;;12.10;99.90;;;;;;4930724;29;20532;-80
2023/05/30 02:58:38;;;;;;;17.42;4.65;;;12.10;99.90;;;;;;4935039;29;20264;-80
2023/05/30 03:01:23;;;;;;;23.05;4.95;;;12.10;99.90;;;;;;4952011;29;20306;-81
2023/05/30 03:03:50;;;;;;;16.42;4.75;;;12.10;99.90;;;;;;4952931;28;20190;-80
2023/05/30 03:06:27;;;;;;;16.58;5.30;;;12.10;99.90;;;;;;4919669;29;20218;-80
2023/05/30 03:09:11;;;;;;;22.80;5.25;;;12.10;99.90;;;;;;4934837;29;20186;-80
2023/05/30 03:11:37;;;;;;;20.63;4.82;;;12.10;99.90;;;;;;4914427;29;20681;-79
2023/05/30 03:14:03;;;;;;;19.30;4.75;;;12.10;99.90;;;;;;4950362;29;20191;-83
2023/05/30 03:16:29;;;;;;;17.70;5.25;;;12.10;99.90;;;;;;4935798;29;20191;-79
2023/05/30 03:18:56;;;;;;;21.40;5.30;;;12.10;99.90;;;;;;4935690;29;20271;-79
2023/05/30 03:21:23;;;;;;;16.02;4.55;;;12.10;99.90;;;;;;4927895;29;20290;-79
2023/05/30 03:23:51;;;;;;;17.45;4.45;;;12.10;99.90;;;;;;4935976;29;20274;-79
2023/05/30 03:26:20;;;;;;;17.25;4.65;;;12.10;99.90;;;;;;4935856;29;20237;-79
2023/05/30 03:28:46;;;;;;;20.98;5.05;;;12.10;99.90;;;;;;4919904;29;20183;-78
2023/05/30 03:31:20;;;;;;;16.33;4.72;;;12.10;99.90;;;;;;4920897;29;20186;-79
2023/05/30 03:33:47;;;;;;;16.17;4.88;;;12.10;99.90;;;;;;4917117;29;20606;-79
2023/05/30 03:36:16;;;;;;;15.23;4.78;;;12.00;99.90;;;;;;4934415;29;20187;-79
2023/05/30 03:38:43;;;;;;;16.80;5.00;;;12.00;99.90;;;;;;4953347;29;20233;-78
2023/05/30 03:41:09;;;;;;;15.27;5.05;;;12.00;99.90;;;;;;4920035;29;20214;-79
2023/05/30 03:43:35;;;;;;;22.75;5.20;;;12.00;99.90;;;;;;4935534;29;20222;-78
2023/05/30 03:46:00;;;;;;;20.02;4.75;;;12.00;99.90;;;;;;4920310;29;20662;-78
2023/05/30 03:48:26;;;;;;;21.10;5.30;;;12.00;99.90;;;;;;4968042;28;20183;-79
2023/05/30 03:50:53;;;;;;;17.55;4.97;;;12.00;99.90;;;;;;4968356;28;20223;-79
2023/05/30 03:53:19;;;;;;;18.17;5.10;;;12.10;99.90;;;;;;4953608;29;20481;-79
2023/05/30 03:55:45;;;;;;;21.05;4.35;;;12.10;99.90;;;;;;4968040;28;20684;-80
2023/05/30 03:58:11;;;;;;;22.95;5.32;;;12.10;99.90;;;;;;4954024;28;20252;-80
2023/05/30 04:00:36;;;;;;;22.77;5.53;;;12.10;99.90;;;;;;4952335;28;20190;-80
2023/05/30 04:03:02;;;;;;;22.50;4.85;;;12.10;99.90;;;;;;4950241;29;20195;-86
2023/05/30 04:05:28;;;;;;;24.95;4.88;;;12.10;99.90;;;;;;4935500;29;20187;-77
2023/05/30 04:07:54;;;;;;;20.60;4.72;;;12.10;99.90;;;;;;4952358;29;20567;-77
2023/05/30 04:10:20;;;;;;;19.02;5.00;;;12.10;99.90;;;;;;4940819;29;20276;-78
2023/05/30 04:12:45;;;;;;;18.25;5.28;;;12.20;99.90;;;;;;4935424;29;20234;-77
2023/05/30 04:15:11;;;;;;;15.98;4.85;;;12.20;99.90;;;;;;4919825;29;20289;-78
2023/05/30 04:17:37;;;;;;;22.40;5.05;;;12.10;99.90;;;;;;4935164;29;20187;-77
2023/05/30 04:20:04;;;;;;;19.98;5.13;;;12.10;99.90;;;;;;4919606;29;20218;-80
2023/05/30 04:22:32;;;;;;;15.32;4.70;;;12.10;99.90;;;;;;4926588;29;20219;-77
2023/05/30 04:24:59;;;;;;;18.05;5.28;;;12.20;99.90;;;;;;4923005;29;20302;-80
2023/05/30 04:27:25;;;;;;;15.10;4.22;;;12.20;99.90;;;;;;4944993;29;20214;-77
2023/05/30 04:29:53;;;;;;;18.75;4.97;;;12.20;99.90;;;;;;4960113;28;20222;-77
2023/05/30 04:32:20;;;;;;;15.10;4.55;;;12.20;99.90;;;;;;4936906;29;20605;-77
2023/05/30 04:34:47;;;;;;;14.75;4.45;;;12.20;99.90;;;;;;4933329;29;20637;-77
2023/05/30 04:37:17;;;;;;;15.27;4.47;;;12.20;99.90;;;;;;4923814;29;20259;-77
2023/05/30 04:39:44;;;;;;;16.08;4.65;;;12.20;99.90;;;;;;4927807;29;20206;-77
2023/05/30 04:42:10;;;;;;;14.95;4.90;;;12.20;99.90;;;;;;4953249;29;20641;-77
2023/05/30 04:44:39;;;;;;;15.65;4.65;;;12.20;99.90;;;;;;4923242;29;20246;-77
2023/05/30 04:47:10;;;;;;;18.90;4.75;;;12.20;99.90;;;;;;4938686;29;20275;-78
2023/05/30 04:49:39;;;;;;;15.77;4.40;;;12.20;99.90;;;;;;4945892;29;20218;-76
2023/05/30 04:52:07;;;;;;;20.73;4.68;;;12.20;99.90;;;;;;4938586;29;20195;-77
2023/05/30 04:54:32;;;;;;;17.15;4.05;;;12.20;99.90;;;;;;4938505;29;20190;-77
2023/05/30 04:56:58;;;;;;;18.98;4.78;;;12.20;99.90;;;;;;4922376;29;20195;-78
2023/05/30 04:59:24;;;;;;;10.55;3.85;;;12.30;99.90;;;;;;4937067;29;20195;-76
2023/05/30 05:01:52;;;;;;;14.98;4.40;;;12.30;99.90;;;;;;4955461;29;20186;-76
2023/05/30 05:04:18;;;;;;;16.35;3.72;;;12.30;99.90;;;;;;4950194;29;20701;-78
2023/05/30 05:06:43;;;;;;;18.55;4.35;;;12.30;99.90;;;;;;4954645;29;20356;-81
2023/05/30 05:09:10;;;;;;;8.23;3.50;;;12.30;99.90;;;;;;4936750;29;20187;-82
2023/05/30 05:11:36;;;;;;;9.35;3.70;;;12.30;99.90;;;;;;4946171;28;20282;-81
2023/05/30 05:14:02;;;;;;;13.48;3.72;;;12.40;99.90;;;;;;4951920;29;20199;-85
2023/05/30 05:16:28;;;;;;;15.32;4.10;;;12.30;99.90;;;;;;4930889;29;20601;-81
2023/05/30 05:18:54;;;;;;;10.68;3.83;;;12.40;99.90;;;;;;4938129;29;20191;-80
2023/05/30 05:21:20;;;;;;;13.77;4.03;;;12.40;99.90;;;;;;4952781;29;20522;-82
2023/05/30 05:23:45;;;;;;;17.27;3.83;;;12.40;99.90;;;;;;4948402;29;20696;-82
2023/05/30 05:26:11;;;;;;;15.35;3.90;;;12.30;99.90;;;;;;4926008;29;20265;-81
2023/05/30 05:28:37;;;;;;;13.63;3.90;;;12.40;99.90;;;;;;4951059;29;20187;-82
2023/05/30 05:31:03;;;;;;;9.77;3.90;;;12.40;99.90;;;;;;4952023;29;20305;-81
2023/05/30 05:33:28;;;;;;;13.55;3.88;;;12.40;99.90;;;;;;4941803;28;20620;-80
2023/05/30 05:35:54;;;;;;;11.32;3.88;;;12.40;99.90;;;;;;4953966;28;20197;-81
2023/05/30 05:38:20;;;;;;;11.23;3.80;;;12.40;99.90;;;;;;4935244;29;20197;-84
2023/05/30 05:40:46;;;;;;;10.48;3.92;;;12.50;99.90;;;;;;4936118;29;20197;-80
2023/05/30 05:43:12;;;;;;;12.48;4.22;;;12.50;99.90;;;;;;4953873;29;20187;-80
2023/05/30 05:45:38;;;;;;;16.67;4.00;;;12.50;99.90;;;;;;4937097;29;20191;-80
2023/05/30 05:48:05;;;;;;;18.98;4.30;;;12.50;99.90;;;;;;4943135;29;20709;-82
2023/05/30 05:50:30;;;;;;;13.15;4.47;;;12.50;99.90;;;;;;4953560;29;20269;-81
2023/05/30 05:52:56;;;;;;;14.45;4.13;;;12.50;99.90;;;;;;4953805;29;20267;-81
2023/05/30 05:55:22;;;;;;;20.88;4.68;;;12.50;99.90;;;;;;4950381;29;20238;-83
2023/05/30 05:57:48;;;;;;;16.02;4.25;;;12.50;99.90;;;;;;4938965;29;20281;-80
2023/05/30 06:00:15;;;;;;;13.07;4.50;;;12.50;99.90;;;;;;4936145;29;20202;-81
2023/05/30 06:02:41;;;;;;;12.35;4.43;;;12.50;99.90;;;;;;4950003;29;20632;-82
2023/05/30 06:05:07;;;;;;;19.65;4.47;;;12.50;99.90;;;;;;4926555;29;20277;-83
2023/05/30 06:07:34;;;;;;;13.23;4.65;;;12.50;99.90;;;;;;4936451;29;20182;-81
2023/05/30 06:10:00;;;;;;;17.42;3.97;;;12.60;99.90;;;;;;4953799;29;20250;-83
2023/05/30 06:12:25;;;;;;;15.07;3.92;;;12.50;99.90;;;;;;4921813;29;20230;-83
2023/05/30 06:14:51;;;;;;;9.63;3.38;;;12.50;99.90;;;;;;4942088;29;20222;-87
2023/05/30 06:17:17;;;;;;;12.88;3.80;;;12.50;99.90;;;;;;4948687;29;20575;-81
2023/05/30 06:19:43;;;;;;;8.65;3.55;;;12.50;99.90;;;;;;4954068;29;20182;-82
2023/05/30 06:22:08;;;;;;;13.32;4.00;;;12.50;99.90;;;;;;4957097;29;20195;-81
2023/05/30 06:24:36;;;;;;;13.90;4.35;;;12.50;99.90;;;;;;4955437;29;20673;-83
2023/05/30 06:27:02;;;;;;;8.93;3.60;;;12.50;99.90;;;;;;4950245;29;20284;-83
2023/05/30 06:29:29;;;;;;;11.50;3.47;;;12.50;99.90;;;;;;4935306;29;20661;-83
2023/05/30 06:31:54;;;;;;;15.32;3.60;;;12.50;99.90;;;;;;4917014;29;20213;-83
2023/05/30 06:34:20;;;;;;;10.45;3.22;;;12.60;99.90;;;;;;4935876;29;20182;-82
2023/05/30 06:36:46;;;;;;;10.07;3.30;;;12.60;99.90;;;;;;4935865;29;20236;-83
2023/05/30 06:39:15;;;;;;;10.45;3.58;;;12.60;99.90;;;;;;4951821;29;20194;-82
2023/05/30 06:41:45;;;;;;;10.57;3.47;;;12.60;99.90;;;;;;4931490;29;20191;-83
2023/05/30 06:44:10;;;;;;;10.50;3.47;;;12.60;99.90;;;;;;4933773;29;20202;-83
2023/05/30 06:46:37;;;;;;;9.80;3.70;;;12.50;99.90;;;;;;4934281;29;20251;-82
2023/05/30 06:49:03;;;;;;;11.40;4.05;;;12.60;99.90;;;;;;4932884;29;20191;-83
2023/05/30 06:51:30;;;;;;;10.73;3.67;;;12.60;99.90;;;;;;4919499;29;20190;-83
2023/05/30 06:53:57;;;;;;;11.45;3.70;;;12.60;99.90;;;;;;4934929;29;20269;-82
2023/05/30 06:56:23;;;;;;;6.60;3.58;;;12.60;99.90;;;;;;4949130;29;20544;-83
2023/05/30 06:58:49;;;;;;;14.77;3.88;;;12.60;99.90;;;;;;4941916;29;20184;-84
2023/05/30 07:01:15;;;;;;;9.05;3.70;;;12.60;99.90;;;;;;4934879;29;20625;-84
2023/05/30 07:03:40;;;;;;;10.05;3.80;;;12.60;99.90;;;;;;4952022;28;20214;-83
2023/05/30 07:06:06;;;;;;;14.48;3.80;;;12.60;99.90;;;;;;4916042;29;20689;-86
2023/05/30 07:08:32;;;;;;;11.52;4.20;;;12.60;99.90;;;;;;4941283;29;20265;-83
2023/05/30 07:10:58;;;;;;;8.52;3.50;;;12.60;99.90;;;;;;4950456;29;20521;-83
2023/05/30 07:13:24;;;;;;;8.27;3.72;;;12.70;99.90;;;;;;4925575;29;20190;-82
2023/05/30 07:15:50;;;;;;;10.23;3.78;;;12.70;99.90;;;;;;4935749;29;20191;-84
2023/05/30 07:18:15;;;;;;;7.72;3.47;;;12.80;99.90;;;;;;4943315;29;20187;-82
2023/05/30 07:20:41;;;;;;;7.63;3.50;;;12.80;99.90;;;;;;4932270;29;20241;-82
2023/05/30 07:23:07;;;;;;;9.23;3.65;;;12.80;99.90;;;;;;4935683;29;20198;-82
2023/05/30 07:25:33;;;;;;;9.32;3.83;;;12.80;99.90;;;;;;4953226;29;20194;-82
2023/05/30 07:27:59;;;;;;;6.55;3.20;;;12.80;99.90;;;;;;4936151;29;20178;-83
2023/05/30 07:30:24;;;;;;;7.65;3.05;;;12.80;99.90;;;;;;4953321;29;20277;-81
2023/05/30 07:32:51;;;;;;;10.23;3.95;;;12.80;99.90;;;;;;4945803;29;20226;-80
2023/05/30 07:35:16;;;;;;;10.48;3.90;;;12.80;99.90;;;;;;4951377;29;20182;-81
2023/05/30 07:37:42;;;;;;;8.13;3.75;;;12.80;99.90;;;;;;4913992;29;20201;-82
2023/05/30 07:40:08;;;;;;;12.68;4.18;;;12.80;99.90;;;;;;4933099;29;20195;-82
2023/05/30 07:42:36;;;;;;;9.57;3.58;;;12.80;99.90;;;;;;4934252;29;20622;-86
2023/05/30 07:45:02;;;;;;;9.60;3.30;;;12.80;99.90;;;;;;4921665;29;20186;-81
2023/05/30 07:47:28;;;;;;;8.95;3.53;;;12.80;99.90;;;;;;4933776;29;20198;-81
2023/05/30 07:49:54;;;;;;;7.30;3.15;;;12.80;99.90;;;;;;4935770;29;20645;-82
2023/05/30 07:52:20;;;;;;;7.95;2.53;;;12.80;99.90;;;;;;4918881;29;20290;-81
2023/05/30 07:54:46;;;;;;;9.07;2.80;;;12.80;99.90;;;;;;4953527;29;20669;-81
2023/05/30 07:57:13;;;;;;;9.45;2.80;;;12.90;99.90;;;;;;4905310;29;20205;-82
2023/05/30 07:59:42;;;;;;;7.00;2.72;;;12.90;99.90;;;;;;4924113;29;20190;-82
2023/05/30 08:02:08;;;;;;;6.15;2.65;;;13.00;99.90;;;;;;4943716;29;20225;-82
2023/05/30 08:04:34;;;;;;;10.02;3.20;;;13.00;99.90;;;;;;4942148;29;20279;-82
2023/05/30 08:07:02;;;;;;;7.63;3.25;;;13.00;99.90;;;;;;4953519;29;20261;-81
2023/05/30 08:09:30;;;;;;;8.18;3.60;;;13.10;99.90;;;;;;4935485;29;20300;-83
2023/05/30 08:11:58;;;;;;;11.02;3.55;;;13.10;99.90;;;;;;4949306;28;20230;-81
2023/05/30 08:14:24;;;;;;;8.52;3.40;;;13.20;99.90;;;;;;4956586;29;20261;-81
2023/05/30 08:16:50;;;;;;;8.63;3.65;;;13.20;99.90;;;;;;4907479;29;20614;-82
2023/05/30 08:19:16;;;;;;;10.77;4.47;;;13.20;99.90;;;;;;4939183;29;20202;-82
2023/05/30 08:21:43;;;;;;;10.23;3.60;;;13.20;99.90;;;;;;4955763;29;20263;-81
2023/05/30 08:24:12;;;;;;;10.45;2.85;;;13.30;99.90;;;;;;4955559;29;20186;-82
2023/05/30 08:26:39;;;;;;;4.72;2.70;;;13.30;99.90;;;;;;4938947;29;20310;-79
2023/05/30 08:29:05;;;;;;;12.90;3.47;;;13.30;99.90;;;;;;4955425;29;20190;-81
2023/05/30 08:31:31;;;;;;;6.93;2.92;;;13.30;99.90;;;;;;4907537;29;20199;-80
2023/05/30 08:33:58;;;;;;;6.55;2.67;;;13.30;99.90;;;;;;4956170;29;20194;-81
2023/05/30 08:36:23;;;;;;;6.60;3.28;;;13.40;99.90;;;;;;4929333;29;20395;-80
2023/05/30 08:38:53;;;;;;;6.80;2.45;;;13.40;99.90;;;;;;4939599;29;20637;-80
2023/05/30 08:41:20;;;;;;;6.72;2.40;;;13.50;99.90;;;;;;4921947;29;20250;-80
2023/05/30 08:43:46;;;;;;;4.82;2.00;;;13.60;99.90;;;;;;4942486;29;20669;-78
2023/05/30 08:46:14;;;;;;;4.30;2.00;;;13.80;99.90;;;;;;4955198;29;20270;-79
2023/05/30 08:48:42;;;;;;;3.47;1.38;;;13.90;99.90;;;;;;4939073;29;20225;-84
2023/05/30 08:51:15;;;;;;;2.22;1.20;;;14.10;99.90;;;;;;4966072;28;20233;-79
2023/05/30 08:53:45;;;;;;;1.55;1.25;;;14.20;99.90;;;;;;4955870;29;20183;-85
2023/05/30 08:56:15;;;;;;;1.92;1.13;;;14.30;99.90;;;;;;4954254;29;20201;-80
2023/05/30 08:58:47;;;;;;;1.45;1.10;;;14.30;99.90;;;;;;4938907;29;20179;-79
2023/05/30 09:01:14;;;;;;;1.92;1.00;;;14.40;99.90;;;;;;4938051;29;20183;-79
2023/05/30 09:03:43;;;;;;;1.80;1.00;;;14.50;99.90;;;;;;4955914;29;20187;-80
2023/05/30 09:06:10;;;;;;;3.05;1.48;;;14.50;99.90;;;;;;4951964;29;20172;-79
2023/05/30 09:08:36;;;;;;;3.17;1.10;;;14.60;99.90;;;;;;4937130;29;20645;-80
2023/05/30 09:11:03;;;;;;;1.10;1.00;;;14.60;99.90;;;;;;4955589;29;21292;-79
2023/05/30 09:13:29;;;;;;;5.07;1.13;;;14.60;99.90;;;;;;4938725;29;20198;-80
2023/05/30 09:15:54;;;;;;;3.90;1.05;;;14.60;99.90;;;;;;4926427;29;20686;-80
2023/05/30 09:18:20;;;;;;;6.35;1.27;;;14.60;99.90;;;;;;4932481;29;20210;-80
2023/05/30 09:20:46;;;;;;;3.72;1.08;;;14.60;99.90;;;;;;4938062;29;20300;-84
2023/05/30 09:23:12;;;;;;;1.80;1.15;;;14.70;99.90;;;;;;4922144;29;20588;-80
2023/05/30 09:25:59;;;;;;;2.45;1.50;;;14.70;99.90;;;;;;4955480;29;20266;-80
2023/05/30 09:28:27;;;;;;;2.20;1.35;;;14.60;99.90;;;;;;4956004;29;20269;-80
2023/05/30 09:30:55;;;;;;;4.70;1.30;;;14.60;99.90;;;;;;4955252;29;20202;-81
2023/05/30 09:33:21;;;;;;;1.77;1.08;;;14.60;99.90;;;;;;4938593;29;20185;-79
2023/05/30 09:35:54;;;;;;;3.17;1.35;;;14.60;99.90;;;;;;4937892;29;20190;-79
2023/05/30 09:38:24;;;;;;;1.88;1.00;;;14.50;99.90;;;;;;4955310;29;20162;-79
2023/05/30 09:41:01;;;;;;;3.47;1.27;;;14.50;99.90;;;;;;4933525;29;20581;-79
2023/05/30 09:43:34;;;;;;;3.53;1.30;;;14.50;99.90;;;;;;4946559;29;20178;-80
2023/05/30 09:46:05;;;;;;;2.03;1.10;;;14.40;99.90;;;;;;4955369;29;20191;-79
2023/05/30 09:48:32;;;;;;;2.33;1.17;;;14.40;99.90;;;;;;4955445;29;20186;-80
2023/05/30 09:51:00;;;;;;;3.30;1.10;;;14.30;99.90;;;;;;4937775;29;20330;-80
2023/05/30 09:53:32;;;;;;;1.63;1.00;;;14.20;99.90;;;;;;4954910;29;20187;-80
2023/05/30 09:55:58;;;;;;;4.30;1.20;;;14.20;99.90;;;;;;4937912;29;20182;-81
2023/05/30 09:58:24;;;;;;;1.83;0.98;;;14.20;99.90;;;;;;4921752;29;20257;-80
2023/05/30 10:00:51;;;;;;;3.08;1.20;;;14.30;99.90;;;;;;4937852;29;20527;-81
2023/05/30 10:03:21;;;;;;;6.15;1.45;;;14.30;99.90;;;;;;4937709;29;20181;-80
2023/05/30 10:05:47;;;;;;;2.40;1.10;;;14.40;99.90;;;;;;4937435;29;20179;-79
2023/05/30 10:08:14;;;;;;;6.18;1.42;;;14.50;99.90;;;;;;4937827;29;20265;-80
2023/05/30 10:10:40;;;;;;;3.13;1.17;;;14.50;99.90;;;;;;4937339;29;20213;-80
2023/05/30 10:13:07;;;;;;;3.38;1.17;;;14.60;99.90;;;;;;4934065;29;20227;-81
2023/05/30 10:15:33;;;;;;;5.22;1.10;;;14.70;99.90;;;;;;4934116;29;20175;-81
2023/05/30 10:18:13;;;;;;;1.60;0.98;;;14.70;99.90;;;;;;4934406;29;20191;-80
2023/05/30 10:20:45;;;;;;;2.15;0.90;;;14.70;99.90;;;;;;4938818;29;20182;-81
2023/05/30 10:23:13;;;;;;;1.67;1.00;;;14.70;99.90;;;;;;4954669;29;20175;-81
2023/05/30 10:25:49;;;;;;;1.83;0.90;;;14.70;99.90;;;;;;4954228;29;20186;-80
2023/05/30 10:28:18;;;;;;;4.15;1.10;;;14.70;99.90;;;;;;4937768;29;20249;-80
2023/05/30 10:30:46;;;;;;;1.45;1.20;;;14.70;99.90;;;;;;4922238;29;20211;-81
2023/05/30 10:33:13;;;;;;;4.20;1.17;;;14.70;99.90;;;;;;4954859;29;20203;-81
2023/05/30 10:35:39;;;;;;;3.33;1.33;;;14.70;99.90;;;;;;4954398;29;20265;-81
2023/05/30 10:38:07;;;;;;;1.75;1.27;;;14.70;99.90;;;;;;4937106;29;20174;-81
2023/05/30 10:40:36;;;;;;;2.55;1.42;;;14.80;99.90;;;;;;4921161;29;20664;-80
2023/05/30 10:43:14;;;;;;;2.40;1.20;;;14.80;99.90;;;;;;4936816;29;20206;-80
2023/05/30 10:45:43;;;;;;;2.40;1.40;;;14.70;99.90;;;;;;4921321;29;20174;-80
2023/05/30 10:48:43;;;;;;;2.03;1.40;;;14.80;99.90;;;;;;4954227;29;20202;-80
2023/05/30 10:51:10;;;;;;;1.70;1.30;;;14.80;99.90;;;;;;4954132;29;20222;-81
2023/05/30 10:54:00;;;;;;;3.63;1.27;;;14.80;99.90;;;;;;4954282;29;20217;-81
2023/05/30 10:56:26;;;;;;;3.85;1.17;;;14.90;99.90;;;;;;4926039;29;20189;-81
2023/05/30 10:58:53;;;;;;;1.30;1.20;;;14.90;99.90;;;;;;4934769;29;20186;-81
2023/05/30 11:01:29;;;;;;;5.07;1.42;;;15.00;99.90;;;;;;4953776;29;20621;-81
2023/05/30 11:04:06;;;;;;;2.22;1.30;;;15.00;99.90;;;;;;4913622;29;20191;-81
2023/05/30 11:06:38;;;;;;;4.55;1.15;;;15.00;99.90;;;;;;4951386;29;20178;-80
2023/05/30 11:09:14;;;;;;;3.83;1.92;;;15.10;99.90;;;;;;4930495;29;20626;-81
2023/05/30 11:11:42;;;;;;;2.30;1.65;;;15.10;99.90;;;;;;4917392;29;20222;-80
2023/05/30 11:14:13;;;;;;;2.15;1.40;;;15.10;99.90;;;;;;4943080;29;20194;-80
2023/05/30 11:16:54;;;;;;;1.63;1.40;;;15.10;99.90;;;;;;4920768;29;20182;-81
2023/05/30 11:19:38;;;;;;;1.60;1.20;;;15.10;99.90;;;;;;4936547;29;20205;-80
2023/05/30 11:22:15;;;;;;;5.30;1.58;;;15.10;99.90;;;;;;4926778;29;20183;-81
2023/05/30 11:24:42;;;;;;;3.75;1.70;;;15.10;99.90;;;;;;4934918;29;20171;-80
2023/05/30 11:27:10;;;;;;;7.93;1.60;;;15.20;99.90;;;;;;4917553;29;20633;-81
2023/05/30 11:29:37;;;;;;;2.22;1.30;;;15.20;99.90;;;;;;4934219;29;20200;-81
2023/05/30 11:32:07;;;;;;;4.32;1.70;;;15.20;99.90;;;;;;4932796;29;20195;-86
2023/05/30 11:34:36;;;;;;;2.10;1.52;;;15.20;99.90;;;;;;4928836;29;20187;-80
2023/05/30 11:37:03;;;;;;;3.80;2.00;;;15.20;99.90;;;;;;4920152;29;20206;-81
2023/05/30 11:39:33;;;;;;;3.67;1.85;;;15.20;99.90;;;;;;4953464;29;20234;-81
2023/05/30 11:42:02;;;;;;;1.83;1.30;;;15.20;99.90;;;;;;4953744;29;20262;-80
2023/05/30 11:44:30;;;;;;;1.70;1.30;;;15.30;99.90;;;;;;4932652;29;20587;-81
2023/05/30 11:47:05;;;;;;;2.42;1.30;;;15.30;99.90;;;;;;4950991;29;20202;-84
2023/05/30 11:49:31;;;;;;;3.05;1.35;;;15.40;99.90;;;;;;4929549;29;20228;-80
2023/05/30 11:51:57;;;;;;;4.40;1.60;;;15.50;99.90;;;;;;4934952;29;20187;-80
2023/05/30 11:54:24;;;;;;;1.58;1.48;;;15.60;99.90;;;;;;4953069;29;20340;-81
2023/05/30 11:56:50;;;;;;;2.38;1.42;;;15.60;99.90;;;;;;4936317;29;20187;-80
2023/05/30 11:59:18;;;;;;;4.10;1.52;;;15.70;99.90;;;;;;4920580;29;20199;-80
2023/05/30 12:01:50;;;;;;;1.50;1.40;;;15.70;99.90;;;;;;4917675;29;20641;-81
2023/05/30 12:04:20;;;;;;;1.88;1.23;;;15.70;99.90;;;;;;4950249;29;20205;-80
2023/05/30 12:06:46;;;;;;;2.72;1.10;;;15.60;99.90;;;;;;4944806;29;20217;-81
2023/05/30 12:09:12;;;;;;;4.15;1.60;;;15.60;99.90;;;;;;4920271;29;20210;-81
2023/05/30 12:11:38;;;;;;;2.58;1.40;;;15.60;99.90;;;;;;4953323;29;20234;-81
2023/05/30 12:14:03;;;;;;;6.20;1.50;;;15.60;99.90;;;;;;4936500;29;20727;-81
2023/05/30 12:16:29;;;;;;;2.45;1.40;;;15.60;99.90;;;;;;4952946;29;20652;-81
2023/05/30 12:18:57;;;;;;;1.85;1.40;;;15.60;99.90;;;;;;4917763;29;20199;-81
2023/05/30 12:21:23;;;;;;;6.32;1.40;;;15.60;99.90;;;;;;4946215;29;20558;-80
2023/05/30 12:23:48;;;;;;;3.53;1.40;;;15.70;99.90;;;;;;4954645;29;20274;-81
2023/05/30 12:26:18;;;;;;;4.20;1.25;;;15.70;99.90;;;;;;4922212;29;20202;-81
2023/05/30 12:28:46;;;;;;;1.45;1.20;;;15.90;99.90;;;;;;4938550;29;20191;-80
2023/05/30 12:31:33;;;;;;;3.88;1.40;;;15.90;99.90;;;;;;4957871;29;20305;-81
2023/05/30 12:34:02;;;;;;;2.10;1.30;;;16.10;99.90;;;;;;4936109;29;20187;-80
2023/05/30 12:36:28;;;;;;;2.20;1.58;;;16.20;99.90;;;;;;4938068;29;20701;-82
2023/05/30 12:38:55;;;;;;;2.10;1.40;;;16.30;99.90;;;;;;4954671;29;20336;-80
2023/05/30 12:41:31;;;;;;;1.58;1.40;;;16.30;99.90;;;;;;4955183;29;20198;-80
2023/05/30 12:43:58;;;;;;;2.38;1.30;;;16.30;99.90;;;;;;4939809;29;20178;-79
2023/05/30 12:46:27;;;;;;;4.25;1.70;;;16.30;99.90;;;;;;4957431;29;20356;-80